International Virtual Aviation Organisation

Russian Federation and Kazakhstan MCD

 

Карточка аэропорта UUEE

Внимание!
Информация на этой странице в стадии наполнения.
Если вы не увидели какой-то информации, или заметили неточность - пожалуйста сообщите нам!
Спасибо!
Команда RU-STAFF
Название аэропортаШереметьево
Название аэропорта (англ.)Sheremetyevo
Превышение630 ft. (192 m.)
Координаты55°58.416', 37°24.75'
Высота перехода10000 ft
Эшелон переходаFL110
Коды ответчика1501-1537
Зона ОрВДМосква РПИ (UUWV)
Данные METARUUEE 041400Z 16004MPS 9000 OVC009 M04/M06 Q1032 R06R/410151 R06L/410151 NOSIG
Проноз погоды (TAF)UUEE 041050Z 0412/0512 15004G09MPS 9999 OVC012 TXM03/0512Z TNM05/0503Z TEMPO 0412/0418 -SHSN BKN008 SCT012CB TEMPO 0421/0506 SCT004 BECMG 0506/0509 SCT016
NOTAMshow/hide NOTAM
AWOS   TABLE

Информация о ВПП

ВПП Длина ВПП (м.) Покрытие Курс ВПП Частота ILS
06C3550Бетон64108.1
06L3200Бетон64108.75
06R3700Железобетон64109.1
24R3200Бетон244109.35
24L3700Железобетон244110.5
24C3550Бетон244111.3

Диспетчерские позиции

Позывной Наименование органа УВД Частота
UUEE_TWRШереметьево-Вышка120.700
UUEE_TWRШереметьево-Вышка131.500
UUEE_TWRШереметьево-Вышка118.700
UUEE_DELШереметьево-Деливери120.875
UUEE_DELШереметьево-Деливери128.600
UUEE_GNDШереметьево-Руление119.000
UUEE_GNDШереметьево-Руление121.800
UUEE_GNDШереметьево-Руление122.900
UUEE_APPШереметьево-Прилет122.700
UUEE_D_APPШереметьево-Прилет118.100
UUEE_DEPШереметьево-Вылет120.675



Спутниковое изображение